sensor_id;sensor_type;location;lat;lon;timestamp;P1;durP1;ratioP1;P2;durP2;ratioP2
31306;SDS011;17935;51.120;13.132;2023-03-01T07:15:12;59.05;;;30.98;;
31306;SDS011;17935;51.120;13.132;2023-03-01T07:17:39;58.08;;;35.78;;
31306;SDS011;17935;51.120;13.132;2023-03-01T07:20:05;49.72;;;32.45;;
31306;SDS011;17935;51.120;13.132;2023-03-01T07:22:31;50.15;;;33.42;;
31306;SDS011;17935;51.120;13.132;2023-03-01T07:24:57;41.03;;;25.40;;
31306;SDS011;17935;51.120;13.132;2023-03-01T07:27:23;41.38;;;24.58;;
31306;SDS011;17935;51.120;13.132;2023-03-01T07:29:49;37.20;;;23.38;;
31306;SDS011;17935;51.120;13.132;2023-03-01T07:32:15;38.38;;;24.48;;
31306;SDS011;17935;51.120;13.132;2023-03-01T07:34:41;37.42;;;23.77;;
31306;SDS011;17935;51.120;13.132;2023-03-01T07:37:07;39.08;;;25.60;;
31306;SDS011;17935;51.120;13.132;2023-03-01T07:39:33;39.55;;;24.33;;
31306;SDS011;17935;51.120;13.132;2023-03-01T07:41:59;35.40;;;23.98;;
31306;SDS011;17935;51.120;13.132;2023-03-01T07:44:25;36.78;;;26.02;;
31306;SDS011;17935;51.120;13.132;2023-03-01T07:46:50;33.67;;;23.20;;
31306;SDS011;17935;51.120;13.132;2023-03-01T07:49:21;35.03;;;24.08;;
31306;SDS011;17935;51.120;13.132;2023-03-01T07:51:47;34.08;;;24.13;;
31306;SDS011;17935;51.120;13.132;2023-03-01T07:54:12;36.95;;;25.50;;
31306;SDS011;17935;51.120;13.132;2023-03-01T07:56:38;39.13;;;25.05;;
31306;SDS011;17935;51.120;13.132;2023-03-01T07:59:05;31.67;;;24.08;;
31306;SDS011;17935;51.120;13.132;2023-03-01T08:01:31;35.53;;;23.55;;
31306;SDS011;17935;51.120;13.132;2023-03-01T08:03:57;32.45;;;24.55;;
31306;SDS011;17935;51.120;13.132;2023-03-01T08:06:23;30.63;;;23.38;;
31306;SDS011;17935;51.120;13.132;2023-03-01T08:08:49;27.38;;;22.08;;
31306;SDS011;17935;51.120;13.132;2023-03-01T08:11:15;37.80;;;24.63;;
31306;SDS011;17935;51.120;13.132;2023-03-01T08:13:41;28.67;;;24.02;;
31306;SDS011;17935;51.120;13.132;2023-03-01T08:16:10;33.28;;;24.13;;
31306;SDS011;17935;51.120;13.132;2023-03-01T08:18:36;28.38;;;24.33;;
31306;SDS011;17935;51.120;13.132;2023-03-01T08:21:06;28.65;;;24.40;;
31306;SDS011;17935;51.120;13.132;2023-03-01T08:23:32;28.50;;;22.50;;
31306;SDS011;17935;51.120;13.132;2023-03-01T08:26:12;29.02;;;22.85;;
31306;SDS011;17935;51.120;13.132;2023-03-01T08:28:38;31.98;;;24.30;;
31306;SDS011;17935;51.120;13.132;2023-03-01T08:33:39;32.40;;;23.70;;
31306;SDS011;17935;51.120;13.132;2023-03-01T08:36:05;29.48;;;22.75;;
31306;SDS011;17935;51.120;13.132;2023-03-01T08:38:32;32.03;;;20.98;;
31306;SDS011;17935;51.120;13.132;2023-03-01T08:40:59;28.80;;;21.65;;
31306;SDS011;17935;51.120;13.132;2023-03-01T08:43:25;28.95;;;22.27;;
31306;SDS011;17935;51.120;13.132;2023-03-01T08:45:51;25.67;;;20.60;;
31306;SDS011;17935;51.120;13.132;2023-03-01T08:48:17;32.90;;;23.52;;
31306;SDS011;17935;51.120;13.132;2023-03-01T08:50:42;31.67;;;22.52;;
31306;SDS011;17935;51.120;13.132;2023-03-01T08:53:08;29.73;;;21.70;;
31306;SDS011;17935;51.120;13.132;2023-03-01T08:55:34;28.25;;;21.83;;
31306;SDS011;17935;51.120;13.132;2023-03-01T08:58:00;30.90;;;22.55;;
31306;SDS011;17935;51.120;13.132;2023-03-01T09:00:26;27.73;;;22.02;;
31306;SDS011;17935;51.120;13.132;2023-03-01T09:02:52;30.05;;;21.35;;
31306;SDS011;17935;51.120;13.132;2023-03-01T09:05:18;26.80;;;20.25;;
31306;SDS011;17935;51.120;13.132;2023-03-01T09:07:44;24.98;;;21.13;;
31306;SDS011;17935;51.120;13.132;2023-03-01T09:10:10;26.67;;;20.48;;
31306;SDS011;17935;51.120;13.132;2023-03-01T09:12:36;27.92;;;21.67;;
31306;SDS011;17935;51.120;13.132;2023-03-01T09:15:02;24.00;;;19.38;;
31306;SDS011;17935;51.120;13.132;2023-03-01T09:17:28;27.77;;;21.27;;
31306;SDS011;17935;51.120;13.132;2023-03-01T09:19:54;27.17;;;20.30;;
31306;SDS011;17935;51.120;13.132;2023-03-01T09:22:20;27.75;;;19.85;;
31306;SDS011;17935;51.120;13.132;2023-03-01T09:24:46;24.52;;;20.20;;
31306;SDS011;17935;51.120;13.132;2023-03-01T09:27:12;23.48;;;19.75;;
31306;SDS011;17935;51.120;13.132;2023-03-01T09:29:39;26.15;;;19.48;;
31306;SDS011;17935;51.120;13.132;2023-03-01T09:32:05;24.75;;;20.48;;
31306;SDS011;17935;51.120;13.132;2023-03-01T09:34:33;23.83;;;19.20;;
31306;SDS011;17935;51.120;13.132;2023-03-01T09:37:18;24.95;;;19.35;;
31306;SDS011;17935;51.120;13.132;2023-03-01T09:39:44;27.65;;;20.00;;
31306;SDS011;17935;51.120;13.132;2023-03-01T09:42:10;24.20;;;18.55;;
31306;SDS011;17935;51.120;13.132;2023-03-01T09:44:43;22.80;;;17.92;;
31306;SDS011;17935;51.120;13.132;2023-03-01T09:47:12;25.45;;;18.92;;
31306;SDS011;17935;51.120;13.132;2023-03-01T09:49:40;25.08;;;19.40;;
31306;SDS011;17935;51.120;13.132;2023-03-01T09:52:19;25.73;;;19.17;;
31306;SDS011;17935;51.120;13.132;2023-03-01T09:54:48;22.90;;;18.40;;
31306;SDS011;17935;51.120;13.132;2023-03-01T09:57:19;27.35;;;18.90;;
31306;SDS011;17935;51.120;13.132;2023-03-01T10:02:38;21.58;;;17.83;;
31306;SDS011;17935;51.120;13.132;2023-03-01T10:08:00;24.30;;;19.23;;
31306;SDS011;17935;51.120;13.132;2023-03-01T10:10:32;26.75;;;20.77;;
31306;SDS011;17935;51.120;13.132;2023-03-01T10:12:59;25.40;;;19.77;;
31306;SDS011;17935;51.120;13.132;2023-03-01T10:15:34;27.40;;;20.60;;
31306;SDS011;17935;51.120;13.132;2023-03-01T10:18:03;27.80;;;20.55;;
31306;SDS011;17935;51.120;13.132;2023-03-01T10:20:56;28.25;;;21.23;;
31306;SDS011;17935;51.120;13.132;2023-03-01T10:23:23;29.45;;;20.85;;
31306;SDS011;17935;51.120;13.132;2023-03-01T10:28:38;27.77;;;21.50;;
31306;SDS011;17935;51.120;13.132;2023-03-01T10:31:09;29.10;;;22.00;;
31306;SDS011;17935;51.120;13.132;2023-03-01T10:33:37;30.20;;;21.77;;
31306;SDS011;17935;51.120;13.132;2023-03-01T10:36:07;31.52;;;23.80;;
31306;SDS011;17935;51.120;13.132;2023-03-01T10:38:46;37.33;;;24.13;;
31306;SDS011;17935;51.120;13.132;2023-03-01T10:41:12;35.13;;;23.13;;
31306;SDS011;17935;51.120;13.132;2023-03-01T10:43:46;32.30;;;23.38;;
31306;SDS011;17935;51.120;13.132;2023-03-01T10:46:28;37.60;;;27.15;;
31306;SDS011;17935;51.120;13.132;2023-03-01T10:49:14;36.42;;;24.63;;
31306;SDS011;17935;51.120;13.132;2023-03-01T10:51:40;42.70;;;23.65;;
31306;SDS011;17935;51.120;13.132;2023-03-01T10:56:45;42.60;;;24.27;;
31306;SDS011;17935;51.120;13.132;2023-03-01T10:59:19;42.50;;;25.85;;
31306;SDS011;17935;51.120;13.132;2023-03-01T11:01:47;46.45;;;26.58;;
31306;SDS011;17935;51.120;13.132;2023-03-01T11:04:27;42.63;;;27.25;;
31306;SDS011;17935;51.120;13.132;2023-03-01T11:06:59;42.67;;;25.70;;
31306;SDS011;17935;51.120;13.132;2023-03-01T11:09:26;44.75;;;25.95;;
31306;SDS011;17935;51.120;13.132;2023-03-01T11:12:02;44.67;;;25.20;;
31306;SDS011;17935;51.120;13.132;2023-03-01T11:14:37;41.78;;;25.27;;
31306;SDS011;17935;51.120;13.132;2023-03-01T11:17:11;43.55;;;25.67;;
31306;SDS011;17935;51.120;13.132;2023-03-01T11:19:38;41.10;;;25.15;;
31306;SDS011;17935;51.120;13.132;2023-03-01T11:22:10;42.13;;;24.38;;
31306;SDS011;17935;51.120;13.132;2023-03-01T11:27:04;49.63;;;28.10;;
31306;SDS011;17935;51.120;13.132;2023-03-01T11:29:33;42.30;;;25.60;;
31306;SDS011;17935;51.120;13.132;2023-03-01T11:32:01;43.60;;;25.10;;
31306;SDS011;17935;51.120;13.132;2023-03-01T11:34:32;50.25;;;29.20;;
31306;SDS011;17935;51.120;13.132;2023-03-01T11:37:00;46.25;;;25.45;;
31306;SDS011;17935;51.120;13.132;2023-03-01T11:39:47;41.33;;;24.85;;
31306;SDS011;17935;51.120;13.132;2023-03-01T11:42:20;38.63;;;22.63;;
31306;SDS011;17935;51.120;13.132;2023-03-01T11:44:52;45.22;;;24.30;;
31306;SDS011;17935;51.120;13.132;2023-03-01T11:47:22;41.10;;;24.15;;
31306;SDS011;17935;51.120;13.132;2023-03-01T12:02:27;37.10;;;22.10;;
31306;SDS011;17935;51.120;13.132;2023-03-01T12:07:51;39.40;;;21.75;;
31306;SDS011;17935;51.120;13.132;2023-03-01T12:10:26;41.40;;;22.67;;
31306;SDS011;17935;51.120;13.132;2023-03-01T12:13:12;44.13;;;22.23;;
31306;SDS011;17935;51.120;13.132;2023-03-01T12:18:09;40.08;;;22.98;;
31306;SDS011;17935;51.120;13.132;2023-03-01T12:20:46;35.67;;;21.88;;
31306;SDS011;17935;51.120;13.132;2023-03-01T12:31:10;35.15;;;21.83;;
31306;SDS011;17935;51.120;13.132;2023-03-01T12:33:57;36.03;;;23.75;;
31306;SDS011;17935;51.120;13.132;2023-03-01T12:39:10;33.58;;;22.58;;
31306;SDS011;17935;51.120;13.132;2023-03-01T12:41:46;30.80;;;22.15;;
31306;SDS011;17935;51.120;13.132;2023-03-01T12:47:04;33.80;;;23.35;;
31306;SDS011;17935;51.120;13.132;2023-03-01T12:49:32;32.65;;;21.70;;
31306;SDS011;17935;51.120;13.132;2023-03-01T12:51:59;29.47;;;19.87;;
31306;SDS011;17935;51.120;13.132;2023-03-01T12:54:28;32.35;;;21.75;;
31306;SDS011;17935;51.120;13.132;2023-03-01T12:56:55;33.53;;;23.15;;
31306;SDS011;17935;51.120;13.132;2023-03-01T12:59:24;32.65;;;20.48;;
31306;SDS011;17935;51.120;13.132;2023-03-01T13:04:42;27.65;;;18.65;;
31306;SDS011;17935;51.120;13.132;2023-03-01T13:17:52;26.63;;;18.05;;
31306;SDS011;17935;51.120;13.132;2023-03-01T13:20:20;27.15;;;18.55;;
31306;SDS011;17935;51.120;13.132;2023-03-01T13:22:46;25.50;;;17.52;;
31306;SDS011;17935;51.120;13.132;2023-03-01T13:27:39;28.80;;;19.92;;
31306;SDS011;17935;51.120;13.132;2023-03-01T13:30:11;29.75;;;19.77;;
31306;SDS011;17935;51.120;13.132;2023-03-01T13:32:51;28.40;;;19.40;;
31306;SDS011;17935;51.120;13.132;2023-03-01T13:37:43;31.45;;;20.27;;
31306;SDS011;17935;51.120;13.132;2023-03-01T13:42:53;33.20;;;19.08;;
31306;SDS011;17935;51.120;13.132;2023-03-01T13:45:24;30.13;;;19.55;;
31306;SDS011;17935;51.120;13.132;2023-03-01T13:47:53;29.48;;;19.10;;
31306;SDS011;17935;51.120;13.132;2023-03-01T13:50:23;25.83;;;17.20;;
31306;SDS011;17935;51.120;13.132;2023-03-01T13:52:52;27.10;;;17.73;;
31306;SDS011;17935;51.120;13.132;2023-03-01T13:55:21;24.83;;;16.60;;
31306;SDS011;17935;51.120;13.132;2023-03-01T13:57:50;26.85;;;17.15;;
31306;SDS011;17935;51.120;13.132;2023-03-01T14:00:38;27.55;;;17.30;;
31306;SDS011;17935;51.120;13.132;2023-03-01T14:05:31;26.58;;;16.20;;
31306;SDS011;17935;51.120;13.132;2023-03-01T14:07:57;24.40;;;15.57;;
31306;SDS011;17935;51.120;13.132;2023-03-01T14:10:24;25.63;;;15.60;;
31306;SDS011;17935;51.120;13.132;2023-03-01T14:12:54;26.52;;;16.65;;
31306;SDS011;17935;51.120;13.132;2023-03-01T14:15:27;25.80;;;17.60;;
31306;SDS011;17935;51.120;13.132;2023-03-01T14:20:27;28.27;;;17.48;;
31306;SDS011;17935;51.120;13.132;2023-03-01T14:22:59;30.40;;;18.27;;
31306;SDS011;17935;51.120;13.132;2023-03-01T14:25:30;26.88;;;17.77;;
31306;SDS011;17935;51.120;13.132;2023-03-01T14:30:59;25.60;;;17.90;;
31306;SDS011;17935;51.120;13.132;2023-03-01T14:33:30;28.73;;;18.05;;
31306;SDS011;17935;51.120;13.132;2023-03-01T14:35:59;26.75;;;18.00;;
31306;SDS011;17935;51.120;13.132;2023-03-01T14:38:32;25.80;;;18.00;;
31306;SDS011;17935;51.120;13.132;2023-03-01T14:41:00;26.33;;;18.00;;
31306;SDS011;17935;51.120;13.132;2023-03-01T14:43:27;27.15;;;16.67;;
31306;SDS011;17935;51.120;13.132;2023-03-01T14:45:54;26.05;;;17.45;;
31306;SDS011;17935;51.120;13.132;2023-03-01T14:48:21;28.45;;;16.75;;
31306;SDS011;17935;51.120;13.132;2023-03-01T14:50:47;26.15;;;15.82;;
31306;SDS011;17935;51.120;13.132;2023-03-01T14:53:25;19.95;;;15.00;;
31306;SDS011;17935;51.120;13.132;2023-03-01T14:55:56;20.88;;;14.68;;
31306;SDS011;17935;51.120;13.132;2023-03-01T14:58:24;23.10;;;14.40;;
31306;SDS011;17935;51.120;13.132;2023-03-01T15:03:19;22.42;;;14.10;;
31306;SDS011;17935;51.120;13.132;2023-03-01T15:05:46;24.05;;;15.02;;
31306;SDS011;17935;51.120;13.132;2023-03-01T15:08:23;21.15;;;13.73;;
31306;SDS011;17935;51.120;13.132;2023-03-01T15:11:00;21.30;;;14.20;;
31306;SDS011;17935;51.120;13.132;2023-03-01T15:13:28;18.33;;;13.00;;
31306;SDS011;17935;51.120;13.132;2023-03-01T15:16:08;19.85;;;13.32;;
31306;SDS011;17935;51.120;13.132;2023-03-01T15:18:35;20.88;;;13.85;;
31306;SDS011;17935;51.120;13.132;2023-03-01T15:21:05;20.93;;;14.10;;
31306;SDS011;17935;51.120;13.132;2023-03-01T15:23:32;21.97;;;14.23;;
31306;SDS011;17935;51.120;13.132;2023-03-01T15:25:58;20.97;;;13.87;;
31306;SDS011;17935;51.120;13.132;2023-03-01T15:28:31;18.03;;;12.83;;
31306;SDS011;17935;51.120;13.132;2023-03-01T15:31:00;25.95;;;13.70;;
31306;SDS011;17935;51.120;13.132;2023-03-01T15:33:29;22.33;;;13.77;;
31306;SDS011;17935;51.120;13.132;2023-03-01T15:35:56;20.52;;;14.23;;
31306;SDS011;17935;51.120;13.132;2023-03-01T15:41:24;19.17;;;12.95;;
31306;SDS011;17935;51.120;13.132;2023-03-01T15:43:50;19.45;;;13.13;;
31306;SDS011;17935;51.120;13.132;2023-03-01T15:46:30;22.00;;;15.40;;
31306;SDS011;17935;51.120;13.132;2023-03-01T15:49:04;22.50;;;14.35;;
31306;SDS011;17935;51.120;13.132;2023-03-01T15:51:32;36.53;;;20.70;;
31306;SDS011;17935;51.120;13.132;2023-03-01T15:53:59;22.80;;;14.93;;
31306;SDS011;17935;51.120;13.132;2023-03-01T15:56:26;21.95;;;14.15;;
31306;SDS011;17935;51.120;13.132;2023-03-01T15:58:51;23.05;;;14.60;;
31306;SDS011;17935;51.120;13.132;2023-03-01T16:01:17;35.40;;;20.67;;
31306;SDS011;17935;51.120;13.132;2023-03-01T16:03:44;25.48;;;15.95;;
31306;SDS011;17935;51.120;13.132;2023-03-01T16:06:10;25.58;;;16.40;;
31306;SDS011;17935;51.120;13.132;2023-03-01T16:08:37;22.10;;;15.30;;
31306;SDS011;17935;51.120;13.132;2023-03-01T16:11:03;21.95;;;14.38;;
31306;SDS011;17935;51.120;13.132;2023-03-01T16:13:30;24.65;;;15.05;;
31306;SDS011;17935;51.120;13.132;2023-03-01T16:15:56;24.13;;;15.07;;
31306;SDS011;17935;51.120;13.132;2023-03-01T16:18:22;24.63;;;13.93;;
31306;SDS011;17935;51.120;13.132;2023-03-01T16:20:48;24.43;;;14.60;;
31306;SDS011;17935;51.120;13.132;2023-03-01T16:23:14;23.23;;;14.37;;
31306;SDS011;17935;51.120;13.132;2023-03-01T16:25:40;22.40;;;15.37;;
31306;SDS011;17935;51.120;13.132;2023-03-01T16:28:06;23.10;;;15.90;;
31306;SDS011;17935;51.120;13.132;2023-03-01T16:30:36;28.15;;;17.17;;
31306;SDS011;17935;51.120;13.132;2023-03-01T16:33:02;24.75;;;16.30;;
31306;SDS011;17935;51.120;13.132;2023-03-01T16:35:31;23.20;;;15.45;;
31306;SDS011;17935;51.120;13.132;2023-03-01T16:37:59;24.30;;;16.45;;
31306;SDS011;17935;51.120;13.132;2023-03-01T16:40:26;26.92;;;16.60;;
31306;SDS011;17935;51.120;13.132;2023-03-01T16:42:53;25.00;;;16.17;;
31306;SDS011;17935;51.120;13.132;2023-03-01T16:45:20;28.38;;;17.15;;
31306;SDS011;17935;51.120;13.132;2023-03-01T16:47:46;27.17;;;18.50;;
31306;SDS011;17935;51.120;13.132;2023-03-01T16:50:12;31.30;;;18.05;;
31306;SDS011;17935;51.120;13.132;2023-03-01T16:52:37;29.20;;;18.98;;
31306;SDS011;17935;51.120;13.132;2023-03-01T16:55:04;28.75;;;18.20;;
31306;SDS011;17935;51.120;13.132;2023-03-01T16:57:30;28.17;;;18.45;;
31306;SDS011;17935;51.120;13.132;2023-03-01T16:59:56;26.85;;;18.23;;
31306;SDS011;17935;51.120;13.132;2023-03-01T17:02:22;30.77;;;18.60;;
31306;SDS011;17935;51.120;13.132;2023-03-01T17:04:52;29.48;;;18.85;;
31306;SDS011;17935;51.120;13.132;2023-03-01T17:07:18;29.98;;;18.90;;
31306;SDS011;17935;51.120;13.132;2023-03-01T17:09:44;33.72;;;19.45;;
31306;SDS011;17935;51.120;13.132;2023-03-01T17:12:13;30.17;;;18.40;;
31306;SDS011;17935;51.120;13.132;2023-03-01T17:14:39;31.13;;;19.58;;
31306;SDS011;17935;51.120;13.132;2023-03-01T17:17:06;34.10;;;21.73;;
31306;SDS011;17935;51.120;13.132;2023-03-01T17:19:32;37.40;;;23.88;;
31306;SDS011;17935;51.120;13.132;2023-03-01T17:22:00;38.50;;;23.17;;
31306;SDS011;17935;51.120;13.132;2023-03-01T17:24:26;34.17;;;22.73;;
31306;SDS011;17935;51.120;13.132;2023-03-01T17:26:51;38.95;;;24.58;;
31306;SDS011;17935;51.120;13.132;2023-03-01T17:29:17;37.05;;;24.92;;
31306;SDS011;17935;51.120;13.132;2023-03-01T17:31:43;44.53;;;27.97;;
31306;SDS011;17935;51.120;13.132;2023-03-01T17:34:09;49.57;;;30.40;;
31306;SDS011;17935;51.120;13.132;2023-03-01T17:36:35;52.27;;;31.97;;
31306;SDS011;17935;51.120;13.132;2023-03-01T17:39:07;51.17;;;30.88;;
31306;SDS011;17935;51.120;13.132;2023-03-01T17:41:33;45.97;;;28.55;;
31306;SDS011;17935;51.120;13.132;2023-03-01T17:43:59;42.83;;;28.10;;
31306;SDS011;17935;51.120;13.132;2023-03-01T17:46:25;44.15;;;27.63;;
31306;SDS011;17935;51.120;13.132;2023-03-01T17:48:51;35.60;;;23.65;;
31306;SDS011;17935;51.120;13.132;2023-03-01T17:51:17;37.85;;;22.45;;
31306;SDS011;17935;51.120;13.132;2023-03-01T17:53:43;41.65;;;25.58;;
31306;SDS011;17935;51.120;13.132;2023-03-01T18:42:26;38.47;;;16.47;;
31306;SDS011;17935;51.120;13.132;2023-03-01T18:44:52;68.07;;;37.47;;
31306;SDS011;17935;51.120;13.132;2023-03-01T18:47:18;61.07;;;35.83;;
31306;SDS011;17935;51.120;13.132;2023-03-01T18:49:44;62.47;;;36.60;;
31306;SDS011;17935;51.120;13.132;2023-03-01T18:52:10;60.47;;;36.63;;
31306;SDS011;17935;51.120;13.132;2023-03-01T18:54:36;63.00;;;36.20;;
31306;SDS011;17935;51.120;13.132;2023-03-01T18:57:02;70.15;;;41.70;;
31306;SDS011;17935;51.120;13.132;2023-03-01T18:59:28;115.70;;;67.97;;
31306;SDS011;17935;51.120;13.132;2023-03-01T19:01:54;105.18;;;59.58;;
31306;SDS011;17935;51.120;13.132;2023-03-01T19:04:20;81.18;;;48.13;;
31306;SDS011;17935;51.120;13.132;2023-03-01T19:06:46;79.70;;;47.20;;
31306;SDS011;17935;51.120;13.132;2023-03-01T19:09:12;78.05;;;46.03;;
31306;SDS011;17935;51.120;13.132;2023-03-01T19:11:39;89.63;;;50.55;;
31306;SDS011;17935;51.120;13.132;2023-03-01T19:14:05;90.22;;;52.15;;
31306;SDS011;17935;51.120;13.132;2023-03-01T19:16:32;82.80;;;47.20;;
31306;SDS011;17935;51.120;13.132;2023-03-01T19:19:00;87.85;;;47.65;;
31306;SDS011;17935;51.120;13.132;2023-03-01T19:21:27;75.45;;;42.92;;
31306;SDS011;17935;51.120;13.132;2023-03-01T19:23:53;63.65;;;37.15;;
31306;SDS011;17935;51.120;13.132;2023-03-01T19:26:21;70.25;;;41.40;;
31306;SDS011;17935;51.120;13.132;2023-03-01T19:28:47;91.95;;;51.28;;
31306;SDS011;17935;51.120;13.132;2023-03-01T19:31:14;106.47;;;61.35;;
31306;SDS011;17935;51.120;13.132;2023-03-01T19:33:41;132.27;;;72.80;;
31306;SDS011;17935;51.120;13.132;2023-03-01T19:36:08;92.38;;;53.20;;
31306;SDS011;17935;51.120;13.132;2023-03-01T19:38:34;75.80;;;45.72;;
31306;SDS011;17935;51.120;13.132;2023-03-01T19:41:04;75.50;;;45.20;;
31306;SDS011;17935;51.120;13.132;2023-03-01T19:43:30;59.95;;;38.45;;
31306;SDS011;17935;51.120;13.132;2023-03-01T19:45:57;64.65;;;43.40;;
31306;SDS011;17935;51.120;13.132;2023-03-01T19:48:23;65.22;;;41.72;;
31306;SDS011;17935;51.120;13.132;2023-03-01T19:50:50;63.35;;;40.92;;
31306;SDS011;17935;51.120;13.132;2023-03-01T19:53:16;49.15;;;27.92;;
31306;SDS011;17935;51.120;13.132;2023-03-01T19:55:42;56.28;;;33.60;;
31306;SDS011;17935;51.120;13.132;2023-03-01T19:58:08;57.00;;;32.40;;
31306;SDS011;17935;51.120;13.132;2023-03-01T20:00:35;44.08;;;25.55;;
31306;SDS011;17935;51.120;13.132;2023-03-01T20:03:00;40.72;;;24.02;;
31306;SDS011;17935;51.120;13.132;2023-03-01T20:05:26;36.67;;;21.85;;
31306;SDS011;17935;51.120;13.132;2023-03-01T20:07:55;42.90;;;25.25;;
31306;SDS011;17935;51.120;13.132;2023-03-01T20:10:21;51.97;;;29.75;;
31306;SDS011;17935;51.120;13.132;2023-03-01T20:12:47;41.05;;;25.65;;
31306;SDS011;17935;51.120;13.132;2023-03-01T20:15:13;52.90;;;29.63;;
31306;SDS011;17935;51.120;13.132;2023-03-01T20:17:39;41.33;;;23.97;;
31306;SDS011;17935;51.120;13.132;2023-03-01T20:20:05;39.33;;;23.70;;
31306;SDS011;17935;51.120;13.132;2023-03-01T20:22:31;39.40;;;23.85;;
31306;SDS011;17935;51.120;13.132;2023-03-01T20:24:57;50.72;;;29.85;;
31306;SDS011;17935;51.120;13.132;2023-03-01T20:27:23;38.38;;;23.40;;
31306;SDS011;17935;51.120;13.132;2023-03-01T20:29:49;37.15;;;21.40;;
31306;SDS011;17935;51.120;13.132;2023-03-01T20:32:15;44.50;;;24.73;;
31306;SDS011;17935;51.120;13.132;2023-03-01T20:34:41;36.70;;;22.33;;
31306;SDS011;17935;51.120;13.132;2023-03-01T20:37:07;37.67;;;19.60;;
31306;SDS011;17935;51.120;13.132;2023-03-01T20:39:33;33.63;;;20.60;;
31306;SDS011;17935;51.120;13.132;2023-03-01T20:41:59;36.25;;;20.90;;
31306;SDS011;17935;51.120;13.132;2023-03-01T20:44:25;35.00;;;20.27;;
31306;SDS011;17935;51.120;13.132;2023-03-01T20:46:51;34.70;;;20.17;;
31306;SDS011;17935;51.120;13.132;2023-03-01T20:49:16;36.23;;;22.27;;
31306;SDS011;17935;51.120;13.132;2023-03-01T20:51:42;37.70;;;21.60;;
31306;SDS011;17935;51.120;13.132;2023-03-01T20:54:08;46.47;;;25.63;;
31306;SDS011;17935;51.120;13.132;2023-03-01T20:56:34;41.20;;;24.30;;
31306;SDS011;17935;51.120;13.132;2023-03-01T20:59:05;38.53;;;22.23;;
31306;SDS011;17935;51.120;13.132;2023-03-01T21:01:33;32.75;;;19.42;;
31306;SDS011;17935;51.120;13.132;2023-03-01T21:03:59;34.53;;;21.67;;
31306;SDS011;17935;51.120;13.132;2023-03-01T21:06:25;37.83;;;23.57;;
31306;SDS011;17935;51.120;13.132;2023-03-01T21:08:51;42.87;;;23.87;;
31306;SDS011;17935;51.120;13.132;2023-03-01T21:11:16;36.75;;;22.33;;
31306;SDS011;17935;51.120;13.132;2023-03-01T21:13:43;36.53;;;22.08;;
31306;SDS011;17935;51.120;13.132;2023-03-01T21:16:10;38.88;;;23.23;;
31306;SDS011;17935;51.120;13.132;2023-03-01T21:18:38;38.33;;;23.13;;
31306;SDS011;17935;51.120;13.132;2023-03-01T21:21:08;38.95;;;23.10;;
31306;SDS011;17935;51.120;13.132;2023-03-01T21:23:35;37.35;;;21.92;;
31306;SDS011;17935;51.120;13.132;2023-03-01T21:26:05;45.55;;;24.38;;
31306;SDS011;17935;51.120;13.132;2023-03-01T21:28:32;37.85;;;21.85;;
31306;SDS011;17935;51.120;13.132;2023-03-01T21:31:11;35.25;;;21.50;;
31306;SDS011;17935;51.120;13.132;2023-03-01T21:33:38;37.28;;;22.52;;
31306;SDS011;17935;51.120;13.132;2023-03-01T21:36:05;36.88;;;22.40;;
31306;SDS011;17935;51.120;13.132;2023-03-01T21:38:32;43.58;;;22.58;;
31306;SDS011;17935;51.120;13.132;2023-03-01T21:41:05;41.35;;;22.83;;
31306;SDS011;17935;51.120;13.132;2023-03-01T21:43:32;37.60;;;21.40;;
31306;SDS011;17935;51.120;13.132;2023-03-01T21:46:02;42.28;;;22.42;;
31306;SDS011;17935;51.120;13.132;2023-03-01T21:48:28;33.58;;;21.40;;
31306;SDS011;17935;51.120;13.132;2023-03-01T21:50:57;41.00;;;24.65;;
31306;SDS011;17935;51.120;13.132;2023-03-01T21:53:24;43.83;;;23.77;;
31306;SDS011;17935;51.120;13.132;2023-03-01T21:55:51;40.03;;;22.73;;
31306;SDS011;17935;51.120;13.132;2023-03-01T21:58:17;37.27;;;22.00;;
31306;SDS011;17935;51.120;13.132;2023-03-01T22:00:43;50.58;;;28.88;;
31306;SDS011;17935;51.120;13.132;2023-03-01T22:03:09;45.65;;;27.13;;
31306;SDS011;17935;51.120;13.132;2023-03-01T22:05:36;39.85;;;23.52;;
31306;SDS011;17935;51.120;13.132;2023-03-01T22:08:02;39.35;;;23.38;;
31306;SDS011;17935;51.120;13.132;2023-03-01T22:10:28;38.20;;;23.05;;
31306;SDS011;17935;51.120;13.132;2023-03-01T22:12:55;47.30;;;23.33;;
31306;SDS011;17935;51.120;13.132;2023-03-01T22:15:22;35.53;;;22.05;;
31306;SDS011;17935;51.120;13.132;2023-03-01T22:17:48;39.33;;;23.20;;
31306;SDS011;17935;51.120;13.132;2023-03-01T22:20:14;40.15;;;22.75;;
31306;SDS011;17935;51.120;13.132;2023-03-01T22:22:41;40.13;;;22.83;;
31306;SDS011;17935;51.120;13.132;2023-03-01T22:25:07;38.92;;;22.75;;
31306;SDS011;17935;51.120;13.132;2023-03-01T22:27:33;41.47;;;24.17;;
31306;SDS011;17935;51.120;13.132;2023-03-01T22:30:02;40.70;;;25.47;;
31306;SDS011;17935;51.120;13.132;2023-03-01T22:32:28;42.28;;;24.42;;
31306;SDS011;17935;51.120;13.132;2023-03-01T22:34:54;43.45;;;23.50;;
31306;SDS011;17935;51.120;13.132;2023-03-01T22:37:20;41.40;;;23.38;;
31306;SDS011;17935;51.120;13.132;2023-03-01T22:39:46;37.92;;;23.73;;
31306;SDS011;17935;51.120;13.132;2023-03-01T22:42:12;37.63;;;22.92;;
31306;SDS011;17935;51.120;13.132;2023-03-01T22:44:38;51.17;;;24.47;;
31306;SDS011;17935;51.120;13.132;2023-03-01T22:47:04;41.47;;;23.33;;
31306;SDS011;17935;51.120;13.132;2023-03-01T22:49:30;41.03;;;24.07;;
31306;SDS011;17935;51.120;13.132;2023-03-01T22:51:56;40.72;;;22.15;;
31306;SDS011;17935;51.120;13.132;2023-03-01T22:54:22;42.65;;;23.55;;
31306;SDS011;17935;51.120;13.132;2023-03-01T22:56:48;38.58;;;22.65;;
31306;SDS011;17935;51.120;13.132;2023-03-01T22:59:15;42.60;;;24.00;;
31306;SDS011;17935;51.120;13.132;2023-03-01T23:01:43;41.85;;;24.48;;
31306;SDS011;17935;51.120;13.132;2023-03-01T23:04:10;39.95;;;23.90;;
31306;SDS011;17935;51.120;13.132;2023-03-01T23:06:36;39.70;;;24.48;;
31306;SDS011;17935;51.120;13.132;2023-03-01T23:09:14;42.97;;;25.35;;
31306;SDS011;17935;51.120;13.132;2023-03-01T23:11:41;43.00;;;25.00;;
31306;SDS011;17935;51.120;13.132;2023-03-01T23:14:06;43.05;;;24.35;;
31306;SDS011;17935;51.120;13.132;2023-03-01T23:16:32;41.97;;;23.95;;
31306;SDS011;17935;51.120;13.132;2023-03-01T23:18:58;43.17;;;24.92;;
31306;SDS011;17935;51.120;13.132;2023-03-01T23:21:24;44.42;;;25.95;;
31306;SDS011;17935;51.120;13.132;2023-03-01T23:23:50;43.22;;;24.13;;
31306;SDS011;17935;51.120;13.132;2023-03-01T23:26:18;46.22;;;26.17;;
31306;SDS011;17935;51.120;13.132;2023-03-01T23:28:46;45.70;;;25.77;;
31306;SDS011;17935;51.120;13.132;2023-03-01T23:31:13;45.55;;;25.27;;
31306;SDS011;17935;51.120;13.132;2023-03-01T23:33:40;47.25;;;26.55;;
31306;SDS011;17935;51.120;13.132;2023-03-01T23:36:16;43.67;;;25.38;;